createdAt,value
2023-05-15T00:02:21.014Z,75.10
2023-05-15T00:04:48.129Z,75.70
2023-05-15T00:07:16.820Z,76.20
2023-05-15T00:09:43.903Z,76.90
2023-05-15T00:12:11.716Z,77.10
2023-05-15T00:14:39.954Z,76.70
2023-05-15T00:17:08.301Z,76.80
2023-05-15T00:19:36.196Z,78.00
2023-05-15T00:22:04.326Z,79.10
2023-05-15T00:24:31.390Z,79.50
2023-05-15T00:27:00.599Z,79.10
2023-05-15T00:29:27.870Z,79.50
2023-05-15T00:31:54.933Z,79.10
2023-05-15T00:34:22.443Z,78.90
2023-05-15T00:36:49.529Z,79.00
2023-05-15T00:39:16.357Z,78.80
2023-05-15T00:41:45.045Z,78.60
2023-05-15T00:44:12.515Z,78.70
2023-05-15T00:46:40.751Z,79.00
2023-05-15T00:49:08.461Z,79.30
2023-05-15T00:51:36.333Z,79.40
2023-05-15T00:54:03.728Z,79.50
2023-05-15T00:56:33.035Z,80.20
2023-05-15T00:59:03.670Z,80.50
2023-05-15T01:01:33.008Z,80.50
2023-05-15T01:04:03.511Z,80.80
2023-05-15T01:06:32.307Z,80.70
2023-05-15T01:09:00.774Z,81.20
2023-05-15T01:11:33.228Z,80.80
2023-05-15T01:14:05.601Z,80.80
2023-05-15T01:16:35.272Z,81.10
2023-05-15T01:19:03.858Z,81.80
2023-05-15T01:22:10.352Z,82.10
2023-05-15T01:24:55.226Z,82.10
2023-05-15T01:27:35.700Z,81.50
2023-05-15T01:30:14.990Z,81.50
2023-05-15T01:32:47.641Z,82.00
2023-05-15T01:35:32.681Z,81.80
2023-05-15T01:38:34.605Z,82.30
2023-05-15T01:41:24.915Z,83.10
2023-05-15T01:44:16.967Z,83.60
2023-05-15T01:46:46.889Z,83.30
2023-05-15T01:49:19.001Z,83.70
2023-05-15T01:51:50.911Z,84.30
2023-05-15T01:54:20.879Z,84.70
2023-05-15T01:56:48.331Z,85.50
2023-05-15T01:59:20.361Z,86.40
2023-05-15T02:01:48.350Z,87.40
2023-05-15T02:04:19.406Z,88.60
2023-05-15T02:06:49.114Z,89.60
2023-05-15T02:09:17.213Z,90.60
2023-05-15T02:11:44.603Z,91.00
2023-05-15T02:14:12.727Z,91.20
2023-05-15T02:16:39.560Z,91.30
2023-05-15T02:19:06.628Z,92.10
2023-05-15T02:21:34.406Z,91.90
2023-05-15T02:24:01.205Z,92.50
2023-05-15T02:26:48.936Z,93.20
2023-05-15T02:29:39.935Z,94.30
2023-05-15T02:32:19.896Z,94.60
2023-05-15T02:35:25.793Z,94.50
2023-05-15T02:37:56.522Z,95.10
2023-05-15T02:40:27.331Z,94.60
2023-05-15T02:42:54.989Z,94.90
2023-05-15T02:45:24.117Z,95.20
2023-05-15T02:47:54.488Z,95.10
2023-05-15T02:50:21.854Z,95.50
2023-05-15T02:52:48.565Z,95.80
2023-05-15T02:55:19.262Z,96.00
2023-05-15T02:57:55.880Z,95.90
2023-05-15T03:00:23.969Z,96.10
2023-05-15T03:02:51.705Z,96.00
2023-05-15T03:05:18.582Z,96.00
2023-05-15T03:07:45.532Z,96.30
2023-05-15T03:10:12.598Z,96.80
2023-05-15T03:12:39.730Z,96.90
2023-05-15T03:15:07.134Z,96.70
2023-05-15T03:17:34.019Z,96.80
2023-05-15T03:20:00.721Z,96.30
2023-05-15T03:22:27.390Z,96.50
2023-05-15T03:24:54.179Z,96.50
2023-05-15T03:27:20.873Z,96.20
2023-05-15T03:29:48.695Z,96.30
2023-05-15T03:32:15.442Z,96.40
2023-05-15T03:34:43.335Z,96.20
2023-05-15T03:37:10.134Z,96.50
2023-05-15T03:39:42.508Z,96.90
2023-05-15T03:42:10.730Z,97.40
2023-05-15T03:44:40.825Z,97.90
2023-05-15T03:47:10.334Z,97.60
2023-05-15T03:49:37.100Z,97.30
2023-05-15T03:52:04.009Z,97.00
2023-05-15T03:54:30.798Z,97.10
2023-05-15T03:56:57.957Z,97.20
2023-05-15T03:59:24.715Z,98.00
2023-05-15T04:02:03.478Z,98.90
2023-05-15T04:04:31.971Z,99.70
2023-05-15T04:06:58.725Z,99.90
2023-05-15T04:09:25.430Z,99.90
2023-05-15T04:11:52.195Z,99.90
2023-05-15T04:14:20.261Z,99.90
2023-05-15T04:16:48.559Z,99.90
2023-05-15T04:19:15.734Z,99.90
2023-05-15T04:21:43.693Z,99.90
2023-05-15T04:24:10.629Z,99.90
2023-05-15T04:26:38.493Z,99.90
2023-05-15T04:29:05.444Z,99.90
2023-05-15T04:31:37.761Z,99.90
2023-05-15T04:34:07.181Z,99.90
2023-05-15T04:36:38.581Z,99.90
2023-05-15T04:39:10.197Z,99.90
2023-05-15T04:41:38.946Z,99.90
2023-05-15T04:44:05.758Z,99.90
2023-05-15T04:46:32.775Z,99.90
2023-05-15T04:48:59.532Z,99.90
2023-05-15T04:51:26.530Z,99.90
2023-05-15T04:53:53.337Z,99.90
2023-05-15T04:56:20.057Z,99.90
2023-05-15T04:58:46.958Z,99.90
2023-05-15T05:01:13.718Z,99.90
2023-05-15T05:03:40.473Z,99.90
2023-05-15T05:06:08.380Z,99.90
2023-05-15T05:08:35.074Z,99.90
2023-05-15T05:11:03.181Z,99.90
2023-05-15T05:13:29.936Z,99.90
2023-05-15T05:15:58.875Z,99.90
2023-05-15T05:18:25.638Z,99.90
2023-05-15T05:20:59.984Z,99.90
2023-05-15T05:23:26.876Z,99.90
2023-05-15T05:25:53.727Z,99.90
2023-05-15T05:28:22.088Z,99.90
2023-05-15T05:30:50.168Z,99.90
2023-05-15T05:33:17.113Z,99.90
2023-05-15T05:35:44.375Z,99.90
2023-05-15T05:38:12.149Z,99.90
2023-05-15T05:40:42.566Z,99.90
2023-05-15T05:43:11.300Z,99.90
2023-05-15T05:45:37.983Z,99.90
2023-05-15T05:48:04.865Z,99.90
2023-05-15T05:50:31.620Z,99.90
2023-05-15T05:52:58.758Z,99.90
2023-05-15T05:55:25.672Z,99.90
2023-05-15T05:57:52.676Z,99.90
2023-05-15T06:00:21.138Z,99.90
2023-05-15T06:02:50.249Z,99.90
2023-05-15T06:05:17.164Z,99.90
2023-05-15T06:07:44.953Z,99.90
2023-05-15T06:10:11.695Z,99.90
2023-05-15T06:12:38.441Z,99.90
2023-05-15T06:15:07.405Z,99.90
2023-05-15T06:17:34.140Z,99.90
2023-05-15T06:20:02.496Z,99.90
2023-05-15T06:22:29.245Z,99.90
2023-05-15T06:24:56.102Z,99.90
2023-05-15T06:27:25.905Z,99.90
2023-05-15T06:29:52.885Z,99.40
2023-05-15T06:32:20.212Z,99.30
2023-05-15T06:34:47.489Z,99.20
2023-05-15T06:37:14.301Z,98.90
2023-05-15T06:39:40.963Z,98.80
2023-05-15T06:42:07.744Z,98.50
2023-05-15T06:44:34.830Z,98.30
2023-05-15T06:47:01.747Z,98.00
2023-05-15T06:49:28.845Z,97.20
2023-05-15T06:51:55.626Z,97.00
2023-05-15T06:54:22.492Z,97.10
2023-05-15T06:56:49.368Z,96.50
2023-05-15T06:59:17.248Z,95.60
2023-05-15T07:01:43.981Z,95.00
2023-05-15T07:04:14.620Z,95.00
2023-05-15T07:06:43.475Z,94.90
2023-05-15T07:09:10.147Z,94.90
2023-05-15T07:11:41.100Z,94.80
2023-05-15T07:14:10.188Z,94.20
2023-05-15T07:16:38.054Z,94.30
2023-05-15T07:19:06.964Z,94.40
2023-05-15T07:21:49.673Z,94.60
2023-05-15T07:24:17.632Z,94.70
2023-05-15T07:26:58.226Z,94.20
2023-05-15T07:29:25.254Z,93.80
2023-05-15T07:31:51.942Z,93.40
2023-05-15T07:34:19.405Z,93.20
2023-05-15T07:36:47.720Z,93.20
2023-05-15T07:39:16.725Z,92.90
2023-05-15T07:41:48.534Z,92.80
2023-05-15T07:44:17.360Z,92.40
2023-05-15T07:46:44.235Z,92.40
2023-05-15T07:49:10.947Z,91.90
2023-05-15T07:51:37.690Z,91.90
2023-05-15T07:54:04.564Z,92.20
2023-05-15T07:56:32.076Z,92.20
2023-05-15T07:58:58.878Z,92.00
2023-05-15T08:01:25.569Z,92.10
2023-05-15T08:03:52.751Z,91.80
2023-05-15T08:06:22.178Z,91.60
2023-05-15T08:08:50.419Z,91.40
2023-05-15T08:11:18.794Z,91.00
2023-05-15T08:13:46.446Z,90.60
2023-05-15T08:16:14.505Z,90.20
2023-05-15T08:18:43.667Z,90.10
2023-05-15T08:21:12.255Z,90.10
2023-05-15T08:23:40.348Z,88.30
2023-05-15T08:26:07.929Z,87.20
2023-05-15T08:28:43.450Z,86.40
2023-05-15T08:31:12.943Z,86.00
2023-05-15T08:33:40.062Z,85.50
2023-05-15T08:36:07.512Z,85.60
2023-05-15T08:38:34.303Z,85.30
2023-05-15T08:41:11.271Z,85.50
2023-05-15T08:43:39.627Z,85.50
2023-05-15T08:46:08.328Z,85.80
2023-05-15T08:48:37.523Z,86.20
2023-05-15T08:51:08.564Z,87.20
2023-05-15T08:53:35.658Z,87.80
2023-05-15T08:56:03.142Z,87.80
2023-05-15T08:58:30.941Z,88.50
2023-05-15T09:00:58.980Z,88.70
2023-05-15T09:03:26.422Z,88.80
2023-05-15T09:05:54.524Z,88.40
2023-05-15T09:08:25.199Z,88.80
2023-05-15T09:10:54.581Z,89.20
2023-05-15T09:13:21.232Z,88.70
2023-05-15T09:15:49.520Z,89.10
2023-05-15T09:18:16.482Z,89.30
2023-05-15T09:20:45.221Z,89.20
2023-05-15T09:23:27.918Z,90.00
2023-05-15T09:25:54.667Z,89.70
2023-05-15T09:28:28.981Z,89.20
2023-05-15T09:31:01.851Z,89.20
2023-05-15T09:33:41.303Z,89.10
2023-05-15T09:36:09.597Z,89.00
2023-05-15T09:38:42.976Z,89.40
2023-05-15T09:41:14.999Z,89.50
2023-05-15T09:43:43.869Z,90.00
2023-05-15T09:46:13.488Z,90.00
2023-05-15T09:48:42.432Z,90.00
2023-05-15T09:51:19.907Z,89.90
2023-05-15T09:53:53.573Z,89.90
2023-05-15T09:56:20.517Z,89.60
2023-05-15T09:58:59.434Z,89.50
2023-05-15T10:01:27.599Z,89.60
2023-05-15T10:03:57.983Z,89.50
2023-05-15T10:06:28.295Z,89.70
2023-05-15T10:08:56.572Z,90.20
2023-05-15T10:11:31.140Z,90.00
2023-05-15T10:14:01.566Z,90.10
2023-05-15T10:16:31.315Z,90.20
2023-05-15T10:19:05.063Z,89.40
2023-05-15T10:21:35.095Z,90.20
2023-05-15T10:24:02.754Z,90.00
2023-05-15T10:26:43.278Z,91.90
2023-05-15T10:29:13.145Z,92.70
2023-05-15T10:31:40.990Z,92.90
2023-05-15T10:34:10.427Z,92.70
2023-05-15T10:36:39.658Z,93.00
2023-05-15T10:39:16.050Z,94.00
2023-05-15T10:41:52.261Z,94.00
2023-05-15T10:44:20.320Z,94.60
2023-05-15T10:46:47.688Z,95.90
2023-05-15T10:49:17.352Z,97.40
2023-05-15T10:51:44.353Z,97.80
2023-05-15T10:54:11.071Z,97.00
2023-05-15T10:56:38.904Z,97.30
2023-05-15T10:59:10.417Z,98.10
2023-05-15T11:01:41.126Z,97.70
2023-05-15T11:04:13.426Z,97.80
2023-05-15T11:06:49.015Z,98.40
2023-05-15T11:09:38.551Z,98.90
2023-05-15T11:12:09.920Z,97.80
2023-05-15T11:15:04.797Z,96.50
2023-05-15T11:17:34.677Z,94.80
2023-05-15T11:20:01.548Z,93.30
2023-05-15T11:22:33.547Z,92.70
2023-05-15T11:25:10.784Z,92.70
2023-05-15T11:27:44.987Z,92.50
2023-05-15T11:30:17.393Z,91.80
2023-05-15T11:32:55.322Z,91.10
2023-05-15T11:35:45.175Z,89.20
2023-05-15T11:38:17.598Z,88.20
2023-05-15T11:40:51.401Z,89.10
2023-05-15T11:43:23.542Z,83.40
2023-05-15T11:45:58.119Z,84.90
2023-05-15T11:48:30.843Z,84.00
2023-05-15T11:50:57.500Z,83.90
2023-05-15T11:53:24.653Z,81.10
2023-05-15T11:55:53.338Z,82.20
2023-05-15T11:58:22.801Z,82.20
2023-05-15T12:00:51.882Z,81.00
2023-05-15T12:03:27.660Z,79.50
2023-05-15T12:05:59.749Z,77.20
2023-05-15T12:08:31.979Z,77.60
2023-05-15T12:11:00.978Z,78.00
2023-05-15T12:13:29.400Z,76.60
2023-05-15T12:15:58.599Z,76.60
2023-05-15T12:18:26.798Z,75.50
2023-05-15T12:20:54.494Z,73.00
2023-05-15T12:23:23.075Z,72.00
2023-05-15T12:25:52.836Z,70.30
2023-05-15T12:28:19.626Z,70.60
2023-05-15T12:30:46.710Z,68.70
2023-05-15T12:33:13.852Z,69.40
2023-05-15T12:35:49.414Z,69.80
2023-05-15T12:38:16.396Z,70.00
2023-05-15T12:40:44.672Z,69.40
2023-05-15T12:43:11.502Z,68.50
2023-05-15T12:45:38.860Z,68.20
2023-05-15T12:48:06.220Z,66.10
2023-05-15T12:50:34.307Z,66.70
2023-05-15T12:53:03.327Z,64.90
2023-05-15T12:55:35.694Z,64.90
2023-05-15T12:58:10.802Z,64.40
2023-05-15T13:00:40.264Z,64.70
2023-05-15T13:03:10.388Z,63.60
2023-05-15T13:05:39.333Z,60.80
2023-05-15T13:08:07.184Z,60.20
2023-05-15T13:10:39.616Z,57.50
2023-05-15T13:13:07.632Z,59.30
2023-05-15T13:15:34.324Z,59.60
2023-05-15T13:18:19.767Z,59.20
2023-05-15T13:20:51.175Z,59.20
2023-05-15T13:23:21.249Z,58.90
2023-05-15T13:25:47.983Z,58.70
2023-05-15T13:28:15.909Z,59.00
2023-05-15T13:30:43.359Z,58.90
2023-05-15T13:33:12.695Z,58.90
2023-05-15T13:35:40.337Z,62.60
2023-05-15T13:38:11.119Z,64.90
2023-05-15T13:40:38.924Z,66.00
2023-05-15T13:43:08.045Z,66.90
2023-05-15T13:45:34.889Z,67.90
2023-05-15T13:48:01.762Z,68.50
2023-05-15T13:50:28.788Z,69.20
2023-05-15T13:52:55.676Z,70.30
2023-05-15T13:55:23.304Z,71.50
2023-05-15T13:57:50.216Z,73.90
2023-05-15T14:00:17.479Z,75.90
2023-05-15T14:02:44.829Z,77.20
2023-05-15T14:05:14.381Z,78.30
2023-05-15T14:07:42.492Z,79.20
2023-05-15T14:10:10.290Z,79.90
2023-05-15T14:12:38.062Z,80.80
2023-05-15T14:15:05.329Z,83.90
2023-05-15T14:17:32.159Z,86.10
2023-05-15T14:19:58.962Z,87.70
2023-05-15T14:22:25.681Z,88.40
2023-05-15T14:24:55.447Z,89.80
2023-05-15T14:27:24.034Z,90.20
2023-05-15T14:29:55.176Z,90.70
2023-05-15T14:32:22.575Z,91.10
2023-05-15T14:34:49.729Z,91.30
2023-05-15T14:37:16.539Z,91.60
2023-05-15T14:39:43.500Z,91.90
2023-05-15T14:42:10.826Z,92.30
2023-05-15T14:44:40.000Z,92.50
2023-05-15T14:47:11.752Z,92.80
2023-05-15T14:49:40.200Z,92.50
2023-05-15T14:52:10.836Z,92.50
2023-05-15T14:54:38.577Z,92.40
2023-05-15T14:57:05.653Z,92.50
2023-05-15T14:59:32.446Z,91.80
2023-05-15T15:01:59.155Z,91.70
2023-05-15T15:04:26.075Z,91.70
2023-05-15T15:06:52.757Z,91.80
2023-05-15T15:09:20.981Z,91.90
2023-05-15T15:11:49.277Z,92.20
2023-05-15T15:14:15.933Z,92.90
2023-05-15T15:16:42.716Z,93.50
2023-05-15T15:19:12.243Z,93.90
2023-05-15T15:21:39.112Z,94.40
2023-05-15T15:24:10.109Z,94.40
2023-05-15T15:26:36.961Z,93.90
2023-05-15T15:29:14.753Z,93.70
2023-05-15T15:31:49.059Z,93.80
2023-05-15T15:34:21.352Z,94.50
2023-05-15T15:36:51.829Z,94.10
2023-05-15T15:39:18.987Z,94.10
2023-05-15T15:41:50.362Z,93.90
2023-05-15T15:44:20.864Z,93.70
2023-05-15T15:46:50.602Z,93.30
2023-05-15T15:49:17.634Z,92.80
2023-05-15T15:51:47.392Z,92.40
2023-05-15T15:54:23.618Z,91.80
2023-05-15T15:56:52.963Z,91.70
2023-05-15T15:59:19.799Z,91.40
2023-05-15T16:01:47.143Z,91.30
2023-05-15T16:04:14.657Z,91.40
2023-05-15T16:06:41.567Z,91.30
2023-05-15T16:09:09.831Z,91.10
2023-05-15T16:11:37.554Z,91.10
2023-05-15T16:14:04.281Z,91.10
2023-05-15T16:16:31.438Z,91.20
2023-05-15T16:18:58.244Z,91.50
2023-05-15T16:21:27.545Z,91.70
2023-05-15T16:23:54.233Z,92.40
2023-05-15T16:26:23.739Z,93.50
2023-05-15T16:28:51.580Z,94.00
2023-05-15T16:31:23.310Z,94.00
2023-05-15T16:33:51.806Z,94.70
2023-05-15T16:36:18.572Z,94.70
2023-05-15T16:38:45.369Z,94.10
2023-05-15T16:41:26.338Z,93.90
2023-05-15T16:44:04.800Z,93.90
2023-05-15T16:46:32.860Z,93.90
2023-05-15T16:49:00.281Z,93.50
2023-05-15T16:51:27.234Z,93.60
2023-05-15T16:54:02.788Z,93.40
2023-05-15T16:56:29.585Z,93.30
2023-05-15T16:58:56.340Z,93.40
2023-05-15T17:01:23.053Z,93.00
2023-05-15T17:03:52.849Z,92.70
2023-05-15T17:06:28.506Z,92.90
2023-05-15T17:08:55.162Z,92.50
2023-05-15T17:11:22.238Z,92.40
2023-05-15T17:13:48.952Z,92.50
2023-05-15T17:16:15.761Z,92.60
2023-05-15T17:18:42.499Z,92.40
2023-05-15T17:21:09.223Z,92.50
2023-05-15T17:23:38.673Z,92.50
2023-05-15T17:26:05.418Z,92.60
2023-05-15T17:28:32.239Z,92.60
2023-05-15T17:30:59.485Z,92.80
2023-05-15T17:33:26.202Z,93.10
2023-05-15T17:35:53.110Z,93.30
2023-05-15T17:38:21.282Z,93.70
2023-05-15T17:40:48.521Z,94.00
2023-05-15T17:43:17.222Z,94.20
2023-05-15T17:45:46.828Z,94.30
2023-05-15T17:48:16.570Z,94.40
2023-05-15T17:50:52.666Z,94.40
2023-05-15T17:53:21.154Z,94.20
2023-05-15T17:55:50.769Z,94.30
2023-05-15T17:58:17.739Z,94.30
2023-05-15T18:00:45.063Z,94.40
2023-05-15T18:03:11.963Z,94.90
2023-05-15T18:05:38.720Z,95.00
2023-05-15T18:08:05.602Z,95.40
2023-05-15T18:10:32.348Z,95.50
2023-05-15T18:12:59.040Z,95.50
2023-05-15T18:15:26.604Z,95.80
2023-05-15T18:17:53.508Z,95.80
2023-05-15T18:20:20.300Z,96.00
2023-05-15T18:22:48.070Z,96.10
2023-05-15T18:25:15.021Z,96.20
2023-05-15T18:27:42.779Z,96.60
2023-05-15T18:30:09.879Z,96.70
2023-05-15T18:32:38.047Z,97.00
2023-05-15T18:35:08.635Z,97.30
2023-05-15T18:37:35.347Z,97.40
2023-05-15T18:40:02.296Z,97.60
2023-05-15T18:42:29.269Z,97.70
2023-05-15T18:44:55.915Z,97.70
2023-05-15T18:47:22.856Z,98.00
2023-05-15T18:49:49.724Z,97.90
2023-05-15T18:52:16.433Z,98.10
2023-05-15T18:54:43.216Z,98.10
2023-05-15T18:57:11.324Z,97.90
2023-05-15T18:59:38.000Z,98.00
2023-05-15T19:02:07.446Z,97.90
2023-05-15T19:04:35.260Z,97.90
2023-05-15T19:07:02.330Z,97.80
2023-05-15T19:09:32.554Z,97.90
2023-05-15T19:12:03.028Z,98.20
2023-05-15T19:14:29.758Z,98.40
2023-05-15T19:16:56.642Z,98.50
2023-05-15T19:19:23.622Z,98.70
2023-05-15T19:21:50.623Z,98.90
2023-05-15T19:24:17.565Z,99.10
2023-05-15T19:26:44.299Z,99.30
2023-05-15T19:29:11.064Z,99.30
2023-05-15T19:31:37.890Z,99.70
2023-05-15T19:34:04.717Z,99.90
2023-05-15T19:36:31.427Z,99.90
2023-05-15T19:38:58.180Z,99.90
2023-05-15T19:41:24.854Z,99.90
2023-05-15T19:43:51.626Z,99.90
2023-05-15T19:46:19.584Z,99.90
2023-05-15T19:48:47.794Z,99.90
2023-05-15T19:51:14.479Z,99.90
2023-05-15T19:53:43.804Z,99.90
2023-05-15T19:56:12.253Z,99.90
2023-05-15T19:58:40.316Z,99.90
2023-05-15T20:01:19.349Z,99.90
2023-05-15T20:03:47.406Z,99.90
2023-05-15T20:06:14.485Z,99.90
2023-05-15T20:08:42.774Z,99.90
2023-05-15T20:11:10.948Z,99.90
2023-05-15T20:13:40.721Z,99.90
2023-05-15T20:16:07.574Z,99.90
2023-05-15T20:18:34.962Z,99.90
2023-05-15T20:21:02.157Z,99.90
2023-05-15T20:23:28.941Z,99.90
2023-05-15T20:25:55.875Z,99.90
2023-05-15T20:28:22.593Z,99.90
2023-05-15T20:30:49.377Z,99.90
2023-05-15T20:33:16.041Z,99.90
2023-05-15T20:35:42.871Z,99.90
2023-05-15T20:38:09.718Z,99.90
2023-05-15T20:40:37.757Z,99.90
2023-05-15T20:43:05.594Z,99.90
2023-05-15T20:45:35.536Z,99.90
2023-05-15T20:48:03.915Z,99.90
2023-05-15T20:50:31.099Z,99.90
2023-05-15T20:52:57.795Z,99.90
2023-05-15T20:55:24.497Z,99.90
2023-05-15T20:57:51.171Z,99.90
2023-05-15T21:00:18.622Z,99.90
2023-05-15T21:02:46.615Z,99.90
2023-05-15T21:05:14.086Z,99.90
2023-05-15T21:07:41.311Z,99.90
2023-05-15T21:10:08.794Z,99.90
2023-05-15T21:12:35.645Z,99.90
2023-05-15T21:15:03.307Z,99.90
2023-05-15T21:17:36.590Z,99.90
2023-05-15T21:20:07.063Z,99.90
2023-05-15T21:22:37.474Z,99.90
2023-05-15T21:25:05.031Z,99.90
2023-05-15T21:27:31.907Z,99.90
2023-05-15T21:29:58.768Z,99.90
2023-05-15T21:32:26.436Z,99.90
2023-05-15T21:34:53.255Z,99.90
2023-05-15T21:37:21.620Z,99.90
2023-05-15T21:39:52.041Z,99.90
2023-05-15T21:42:20.353Z,99.90
2023-05-15T21:44:47.034Z,99.90
2023-05-15T21:47:15.934Z,99.90
2023-05-15T21:49:46.333Z,99.90
2023-05-15T21:52:14.450Z,99.90
2023-05-15T21:54:43.273Z,99.90
2023-05-15T21:57:10.339Z,99.90
2023-05-15T21:59:37.118Z,99.90
2023-05-15T22:02:04.314Z,99.90
2023-05-15T22:04:31.112Z,99.90
2023-05-15T22:06:57.899Z,99.90
2023-05-15T22:09:24.622Z,99.90
2023-05-15T22:11:51.381Z,99.90
2023-05-15T22:14:18.386Z,99.90
2023-05-15T22:16:45.321Z,99.90
2023-05-15T22:19:21.433Z,99.90
2023-05-15T22:21:55.759Z,99.90
2023-05-15T22:24:22.532Z,99.90
2023-05-15T22:26:49.285Z,99.90
2023-05-15T22:29:15.996Z,99.90
2023-05-15T22:31:44.154Z,99.90
2023-05-15T22:34:14.198Z,99.90
2023-05-15T22:39:24.136Z,99.90
2023-05-15T22:41:50.992Z,99.90
2023-05-15T22:44:19.305Z,99.90
2023-05-15T22:46:47.376Z,99.90
2023-05-15T22:49:14.205Z,99.90
2023-05-15T22:51:41.003Z,99.90
2023-05-15T22:54:07.944Z,99.90
2023-05-15T22:56:35.135Z,99.90
2023-05-15T22:59:01.937Z,99.90
2023-05-15T23:01:28.826Z,99.90
2023-05-15T23:03:55.677Z,99.90
2023-05-15T23:06:22.866Z,99.90
2023-05-15T23:08:49.714Z,99.90
2023-05-15T23:11:16.508Z,99.90
2023-05-15T23:13:43.259Z,99.90
2023-05-15T23:16:10.454Z,99.90
2023-05-15T23:18:37.344Z,99.90
2023-05-15T23:21:04.087Z,99.90
2023-05-15T23:23:30.803Z,99.90
2023-05-15T23:25:57.637Z,99.90
2023-05-15T23:28:24.790Z,99.90
2023-05-15T23:30:55.540Z,99.90
2023-05-15T23:33:22.919Z,99.90
2023-05-15T23:35:50.082Z,99.90
2023-05-15T23:38:17.247Z,99.90
2023-05-15T23:40:44.291Z,99.90
2023-05-15T23:43:11.113Z,99.90
2023-05-15T23:45:38.132Z,99.90
2023-05-15T23:48:05.249Z,99.90
2023-05-15T23:50:32.116Z,99.90
2023-05-15T23:52:58.846Z,99.90
2023-05-15T23:55:25.866Z,99.90
2023-05-15T23:57:52.655Z,99.90
